sensor_id;sensor_type;location;lat;lon;timestamp;temperature;humidity
57390;DHT22;43217;52.694;6.214;2023-12-28T00:02:24;9.00;99.90
57390;DHT22;43217;52.694;6.214;2023-12-28T00:04:50;9.00;99.90
57390;DHT22;43217;52.694;6.214;2023-12-28T00:07:15;9.00;99.90
57390;DHT22;43217;52.694;6.214;2023-12-28T00:09:41;9.00;99.90
57390;DHT22;43217;52.694;6.214;2023-12-28T00:12:06;9.00;99.90
57390;DHT22;43217;52.694;6.214;2023-12-28T00:14:32;9.10;99.90
57390;DHT22;43217;52.694;6.214;2023-12-28T00:16:57;9.10;99.90
57390;DHT22;43217;52.694;6.214;2023-12-28T00:19:23;9.10;99.90
57390;DHT22;43217;52.694;6.214;2023-12-28T00:21:49;9.10;99.90
57390;DHT22;43217;52.694;6.214;2023-12-28T00:24:16;9.00;99.90
57390;DHT22;43217;52.694;6.214;2023-12-28T00:26:41;9.00;99.90
57390;DHT22;43217;52.694;6.214;2023-12-28T00:29:07;9.00;99.90
57390;DHT22;43217;52.694;6.214;2023-12-28T00:31:32;9.00;99.90
57390;DHT22;43217;52.694;6.214;2023-12-28T00:33:58;9.00;99.90
57390;DHT22;43217;52.694;6.214;2023-12-28T00:36:24;9.00;99.90
57390;DHT22;43217;52.694;6.214;2023-12-28T00:38:49;9.00;99.90
57390;DHT22;43217;52.694;6.214;2023-12-28T00:41:15;9.00;99.90
57390;DHT22;43217;52.694;6.214;2023-12-28T00:43:40;9.00;99.90
57390;DHT22;43217;52.694;6.214;2023-12-28T00:46:06;8.90;99.90
57390;DHT22;43217;52.694;6.214;2023-12-28T00:48:32;8.90;99.90
57390;DHT22;43217;52.694;6.214;2023-12-28T00:50:57;8.90;99.90
57390;DHT22;43217;52.694;6.214;2023-12-28T00:53:25;8.90;99.90
57390;DHT22;43217;52.694;6.214;2023-12-28T00:55:51;8.90;99.90
57390;DHT22;43217;52.694;6.214;2023-12-28T00:58:17;8.90;99.90
57390;DHT22;43217;52.694;6.214;2023-12-28T01:00:42;8.90;99.90
57390;DHT22;43217;52.694;6.214;2023-12-28T01:03:08;8.90;99.90
57390;DHT22;43217;52.694;6.214;2023-12-28T01:05:33;8.90;99.90
57390;DHT22;43217;52.694;6.214;2023-12-28T01:07:59;8.90;99.90
57390;DHT22;43217;52.694;6.214;2023-12-28T01:10:25;8.90;99.90
57390;DHT22;43217;52.694;6.214;2023-12-28T01:12:50;8.90;99.90
57390;DHT22;43217;52.694;6.214;2023-12-28T01:15:16;8.90;99.90
57390;DHT22;43217;52.694;6.214;2023-12-28T01:17:43;8.90;99.90
57390;DHT22;43217;52.694;6.214;2023-12-28T01:20:09;8.90;99.90
57390;DHT22;43217;52.694;6.214;2023-12-28T01:22:35;8.90;99.90
57390;DHT22;43217;52.694;6.214;2023-12-28T01:25:00;8.90;99.90
57390;DHT22;43217;52.694;6.214;2023-12-28T01:27:26;8.90;99.90
57390;DHT22;43217;52.694;6.214;2023-12-28T01:29:52;9.00;99.90
57390;DHT22;43217;52.694;6.214;2023-12-28T01:32:17;9.00;99.90
57390;DHT22;43217;52.694;6.214;2023-12-28T01:34:43;9.00;99.90
57390;DHT22;43217;52.694;6.214;2023-12-28T01:37:08;9.00;99.90
57390;DHT22;43217;52.694;6.214;2023-12-28T01:39:34;9.00;99.90
57390;DHT22;43217;52.694;6.214;2023-12-28T01:42:00;9.00;99.90
57390;DHT22;43217;52.694;6.214;2023-12-28T01:44:25;8.90;99.90
57390;DHT22;43217;52.694;6.214;2023-12-28T01:46:51;8.90;99.90
57390;DHT22;43217;52.694;6.214;2023-12-28T01:49:17;8.90;99.90
57390;DHT22;43217;52.694;6.214;2023-12-28T01:51:44;8.90;99.90
57390;DHT22;43217;52.694;6.214;2023-12-28T01:54:10;8.90;99.90
57390;DHT22;43217;52.694;6.214;2023-12-28T01:56:36;9.00;99.90
57390;DHT22;43217;52.694;6.214;2023-12-28T01:59:02;9.00;99.90
57390;DHT22;43217;52.694;6.214;2023-12-28T02:01:28;9.00;99.90
57390;DHT22;43217;52.694;6.214;2023-12-28T02:03:54;9.00;99.90
57390;DHT22;43217;52.694;6.214;2023-12-28T02:06:23;9.00;99.90
57390;DHT22;43217;52.694;6.214;2023-12-28T02:08:48;9.00;99.90
57390;DHT22;43217;52.694;6.214;2023-12-28T02:11:14;9.00;99.90
57390;DHT22;43217;52.694;6.214;2023-12-28T02:13:40;9.10;99.90
57390;DHT22;43217;52.694;6.214;2023-12-28T02:16:30;9.10;99.90
57390;DHT22;43217;52.694;6.214;2023-12-28T02:19:02;9.10;99.90
57390;DHT22;43217;52.694;6.214;2023-12-28T02:21:31;9.10;99.90
57390;DHT22;43217;52.694;6.214;2023-12-28T02:23:56;9.10;99.90
57390;DHT22;43217;52.694;6.214;2023-12-28T02:26:22;9.20;99.90
57390;DHT22;43217;52.694;6.214;2023-12-28T02:28:48;9.10;99.90
57390;DHT22;43217;52.694;6.214;2023-12-28T02:31:53;9.10;99.90
57390;DHT22;43217;52.694;6.214;2023-12-28T02:34:13;9.20;99.90
57390;DHT22;43217;52.694;6.214;2023-12-28T02:36:44;9.20;99.90
57390;DHT22;43217;52.694;6.214;2023-12-28T02:39:11;9.30;99.90
57390;DHT22;43217;52.694;6.214;2023-12-28T02:41:39;9.30;99.90
57390;DHT22;43217;52.694;6.214;2023-12-28T02:44:05;9.40;99.90
57390;DHT22;43217;52.694;6.214;2023-12-28T02:46:31;9.40;99.90
57390;DHT22;43217;52.694;6.214;2023-12-28T02:48:57;9.40;99.90
57390;DHT22;43217;52.694;6.214;2023-12-28T02:51:24;9.50;99.90
57390;DHT22;43217;52.694;6.214;2023-12-28T02:53:50;9.50;99.90
57390;DHT22;43217;52.694;6.214;2023-12-28T02:56:16;9.50;99.90
57390;DHT22;43217;52.694;6.214;2023-12-28T02:58:41;9.60;99.90
57390;DHT22;43217;52.694;6.214;2023-12-28T03:01:07;9.60;99.90
57390;DHT22;43217;52.694;6.214;2023-12-28T03:03:32;9.60;99.90
57390;DHT22;43217;52.694;6.214;2023-12-28T03:05:58;9.60;99.90
57390;DHT22;43217;52.694;6.214;2023-12-28T03:08:24;9.60;99.90
57390;DHT22;43217;52.694;6.214;2023-12-28T03:10:49;9.60;99.90
57390;DHT22;43217;52.694;6.214;2023-12-28T03:13:15;9.60;99.90
57390;DHT22;43217;52.694;6.214;2023-12-28T03:15:41;9.60;99.90
57390;DHT22;43217;52.694;6.214;2023-12-28T03:18:06;9.60;99.90
57390;DHT22;43217;52.694;6.214;2023-12-28T03:20:32;9.60;99.90
57390;DHT22;43217;52.694;6.214;2023-12-28T03:22:58;9.60;99.90
57390;DHT22;43217;52.694;6.214;2023-12-28T03:25:24;9.60;99.90
57390;DHT22;43217;52.694;6.214;2023-12-28T03:27:49;9.70;99.90
57390;DHT22;43217;52.694;6.214;2023-12-28T03:30:15;9.70;99.90
57390;DHT22;43217;52.694;6.214;2023-12-28T03:32:40;9.70;99.90
57390;DHT22;43217;52.694;6.214;2023-12-28T03:35:06;9.70;99.90
57390;DHT22;43217;52.694;6.214;2023-12-28T03:37:32;9.70;99.90
57390;DHT22;43217;52.694;6.214;2023-12-28T03:39:58;9.70;99.90
57390;DHT22;43217;52.694;6.214;2023-12-28T03:42:24;9.80;99.90
57390;DHT22;43217;52.694;6.214;2023-12-28T03:44:49;9.80;99.90
57390;DHT22;43217;52.694;6.214;2023-12-28T03:47:15;9.80;99.90
57390;DHT22;43217;52.694;6.214;2023-12-28T03:49:41;9.80;99.90
57390;DHT22;43217;52.694;6.214;2023-12-28T03:52:06;9.80;99.90
57390;DHT22;43217;52.694;6.214;2023-12-28T03:54:32;9.80;99.90
57390;DHT22;43217;52.694;6.214;2023-12-28T03:56:57;9.80;99.90
57390;DHT22;43217;52.694;6.214;2023-12-28T03:59:23;9.80;99.90
57390;DHT22;43217;52.694;6.214;2023-12-28T04:01:48;9.80;99.90
57390;DHT22;43217;52.694;6.214;2023-12-28T04:04:14;9.80;99.90
57390;DHT22;43217;52.694;6.214;2023-12-28T04:06:39;9.90;99.90
57390;DHT22;43217;52.694;6.214;2023-12-28T04:09:07;9.90;99.90
57390;DHT22;43217;52.694;6.214;2023-12-28T04:11:33;9.90;99.90
57390;DHT22;43217;52.694;6.214;2023-12-28T04:13:58;9.90;99.90
57390;DHT22;43217;52.694;6.214;2023-12-28T04:16:24;9.90;99.90
57390;DHT22;43217;52.694;6.214;2023-12-28T04:18:49;10.00;99.90
57390;DHT22;43217;52.694;6.214;2023-12-28T04:21:15;10.00;99.90
57390;DHT22;43217;52.694;6.214;2023-12-28T04:23:41;10.00;99.90
57390;DHT22;43217;52.694;6.214;2023-12-28T04:26:07;9.90;99.90
57390;DHT22;43217;52.694;6.214;2023-12-28T04:28:33;9.90;99.90
57390;DHT22;43217;52.694;6.214;2023-12-28T04:31:04;9.90;99.90
57390;DHT22;43217;52.694;6.214;2023-12-28T04:33:30;9.90;99.90
57390;DHT22;43217;52.694;6.214;2023-12-28T04:35:56;9.90;99.90
57390;DHT22;43217;52.694;6.214;2023-12-28T04:38:22;9.80;99.90
57390;DHT22;43217;52.694;6.214;2023-12-28T04:40:47;9.80;99.90
57390;DHT22;43217;52.694;6.214;2023-12-28T04:43:13;9.80;99.90
57390;DHT22;43217;52.694;6.214;2023-12-28T04:45:38;9.70;99.90
57390;DHT22;43217;52.694;6.214;2023-12-28T04:48:04;9.70;99.90
57390;DHT22;43217;52.694;6.214;2023-12-28T04:50:30;9.80;99.90
57390;DHT22;43217;52.694;6.214;2023-12-28T04:52:56;9.80;99.90
57390;DHT22;43217;52.694;6.214;2023-12-28T04:55:21;9.80;99.90
57390;DHT22;43217;52.694;6.214;2023-12-28T04:57:47;9.80;99.90
57390;DHT22;43217;52.694;6.214;2023-12-28T05:00:12;9.80;99.90
57390;DHT22;43217;52.694;6.214;2023-12-28T05:02:38;9.80;99.90
57390;DHT22;43217;52.694;6.214;2023-12-28T05:05:04;9.80;99.90
57390;DHT22;43217;52.694;6.214;2023-12-28T05:07:29;9.90;99.90
57390;DHT22;43217;52.694;6.214;2023-12-28T05:09:55;9.90;99.90
57390;DHT22;43217;52.694;6.214;2023-12-28T05:12:20;9.90;99.90
57390;DHT22;43217;52.694;6.214;2023-12-28T05:14:46;9.90;99.90
57390;DHT22;43217;52.694;6.214;2023-12-28T05:17:12;9.90;99.90
57390;DHT22;43217;52.694;6.214;2023-12-28T05:19:37;9.90;99.90
57390;DHT22;43217;52.694;6.214;2023-12-28T05:22:03;10.00;99.90
57390;DHT22;43217;52.694;6.214;2023-12-28T05:24:32;10.00;99.90
57390;DHT22;43217;52.694;6.214;2023-12-28T05:26:57;10.00;99.90
57390;DHT22;43217;52.694;6.214;2023-12-28T05:29:23;10.00;99.90
57390;DHT22;43217;52.694;6.214;2023-12-28T05:31:49;10.00;99.90
57390;DHT22;43217;52.694;6.214;2023-12-28T05:34:14;10.00;99.90
57390;DHT22;43217;52.694;6.214;2023-12-28T05:36:40;10.10;99.90
57390;DHT22;43217;52.694;6.214;2023-12-28T05:39:07;10.10;99.90
57390;DHT22;43217;52.694;6.214;2023-12-28T05:41:34;10.10;99.90
57390;DHT22;43217;52.694;6.214;2023-12-28T05:44:00;10.10;99.90
57390;DHT22;43217;52.694;6.214;2023-12-28T05:46:26;10.10;99.90
57390;DHT22;43217;52.694;6.214;2023-12-28T05:48:51;10.10;99.90
57390;DHT22;43217;52.694;6.214;2023-12-28T05:51:17;10.10;99.90
57390;DHT22;43217;52.694;6.214;2023-12-28T05:53:44;10.10;99.90
57390;DHT22;43217;52.694;6.214;2023-12-28T05:56:09;10.10;99.90
57390;DHT22;43217;52.694;6.214;2023-12-28T05:58:35;10.10;99.90
57390;DHT22;43217;52.694;6.214;2023-12-28T06:01:02;10.10;99.90
57390;DHT22;43217;52.694;6.214;2023-12-28T06:03:30;10.10;99.90
57390;DHT22;43217;52.694;6.214;2023-12-28T06:05:56;10.10;99.90
57390;DHT22;43217;52.694;6.214;2023-12-28T06:08:22;10.10;99.90
57390;DHT22;43217;52.694;6.214;2023-12-28T06:10:47;10.10;99.90
57390;DHT22;43217;52.694;6.214;2023-12-28T06:13:13;10.10;99.90
57390;DHT22;43217;52.694;6.214;2023-12-28T06:15:38;10.10;99.90
57390;DHT22;43217;52.694;6.214;2023-12-28T06:18:04;10.10;99.90
57390;DHT22;43217;52.694;6.214;2023-12-28T06:20:30;10.10;99.90
57390;DHT22;43217;52.694;6.214;2023-12-28T06:22:55;10.10;99.90
57390;DHT22;43217;52.694;6.214;2023-12-28T06:25:21;10.10;99.90
57390;DHT22;43217;52.694;6.214;2023-12-28T06:27:46;10.10;99.90
57390;DHT22;43217;52.694;6.214;2023-12-28T06:30:12;10.10;99.90
57390;DHT22;43217;52.694;6.214;2023-12-28T06:32:38;10.20;99.90
57390;DHT22;43217;52.694;6.214;2023-12-28T06:35:05;10.20;99.90
57390;DHT22;43217;52.694;6.214;2023-12-28T06:37:31;10.20;99.90
57390;DHT22;43217;52.694;6.214;2023-12-28T06:39:56;10.20;99.90
57390;DHT22;43217;52.694;6.214;2023-12-28T06:42:22;10.30;99.90
57390;DHT22;43217;52.694;6.214;2023-12-28T06:44:47;10.30;99.90
57390;DHT22;43217;52.694;6.214;2023-12-28T06:47:13;10.20;99.90
57390;DHT22;43217;52.694;6.214;2023-12-28T06:49:38;10.30;99.90
57390;DHT22;43217;52.694;6.214;2023-12-28T06:52:04;10.30;99.90
57390;DHT22;43217;52.694;6.214;2023-12-28T06:54:29;10.40;99.90
57390;DHT22;43217;52.694;6.214;2023-12-28T06:56:55;10.40;99.90
57390;DHT22;43217;52.694;6.214;2023-12-28T06:59:21;10.40;99.90
57390;DHT22;43217;52.694;6.214;2023-12-28T07:01:46;10.30;99.90
57390;DHT22;43217;52.694;6.214;2023-12-28T07:04:13;10.40;99.90
57390;DHT22;43217;52.694;6.214;2023-12-28T07:06:39;10.40;99.90
57390;DHT22;43217;52.694;6.214;2023-12-28T07:09:05;10.40;99.90
57390;DHT22;43217;52.694;6.214;2023-12-28T07:11:31;10.40;99.90
57390;DHT22;43217;52.694;6.214;2023-12-28T07:13:56;10.30;99.90
57390;DHT22;43217;52.694;6.214;2023-12-28T07:16:22;10.30;99.90
57390;DHT22;43217;52.694;6.214;2023-12-28T07:18:47;10.40;99.90
57390;DHT22;43217;52.694;6.214;2023-12-28T07:21:13;10.40;99.90
57390;DHT22;43217;52.694;6.214;2023-12-28T07:23:39;10.30;99.90
57390;DHT22;43217;52.694;6.214;2023-12-28T07:26:04;10.40;99.90
57390;DHT22;43217;52.694;6.214;2023-12-28T07:28:30;10.40;99.90
57390;DHT22;43217;52.694;6.214;2023-12-28T07:30:56;10.30;99.90
57390;DHT22;43217;52.694;6.214;2023-12-28T07:33:22;10.40;99.90
57390;DHT22;43217;52.694;6.214;2023-12-28T07:35:47;10.30;99.90
57390;DHT22;43217;52.694;6.214;2023-12-28T07:38:13;10.30;99.90
57390;DHT22;43217;52.694;6.214;2023-12-28T07:40:39;10.30;99.90
57390;DHT22;43217;52.694;6.214;2023-12-28T07:43:05;10.30;99.90
57390;DHT22;43217;52.694;6.214;2023-12-28T07:45:31;10.30;99.90
57390;DHT22;43217;52.694;6.214;2023-12-28T07:47:58;10.20;99.90
57390;DHT22;43217;52.694;6.214;2023-12-28T07:50:24;10.20;99.90
57390;DHT22;43217;52.694;6.214;2023-12-28T07:52:50;10.20;99.90
57390;DHT22;43217;52.694;6.214;2023-12-28T07:55:15;10.20;99.90
57390;DHT22;43217;52.694;6.214;2023-12-28T07:57:41;10.20;99.90
57390;DHT22;43217;52.694;6.214;2023-12-28T08:00:07;10.20;99.90
57390;DHT22;43217;52.694;6.214;2023-12-28T08:02:36;10.10;99.90
57390;DHT22;43217;52.694;6.214;2023-12-28T08:05:02;10.20;99.90
57390;DHT22;43217;52.694;6.214;2023-12-28T08:07:28;10.20;99.90
57390;DHT22;43217;52.694;6.214;2023-12-28T08:09:53;10.20;99.90
57390;DHT22;43217;52.694;6.214;2023-12-28T08:12:19;10.20;99.90
57390;DHT22;43217;52.694;6.214;2023-12-28T08:14:46;10.20;99.90
57390;DHT22;43217;52.694;6.214;2023-12-28T08:17:12;10.20;99.90
57390;DHT22;43217;52.694;6.214;2023-12-28T08:19:37;10.20;99.90
57390;DHT22;43217;52.694;6.214;2023-12-28T08:22:03;10.20;99.90
57390;DHT22;43217;52.694;6.214;2023-12-28T08:24:29;10.20;99.90
57390;DHT22;43217;52.694;6.214;2023-12-28T08:26:54;10.20;99.90
57390;DHT22;43217;52.694;6.214;2023-12-28T08:29:24;10.20;99.90
57390;DHT22;43217;52.694;6.214;2023-12-28T08:31:50;10.20;99.90
57390;DHT22;43217;52.694;6.214;2023-12-28T08:34:16;10.20;99.90
57390;DHT22;43217;52.694;6.214;2023-12-28T08:36:41;10.10;99.90
57390;DHT22;43217;52.694;6.214;2023-12-28T08:39:07;10.10;99.90
57390;DHT22;43217;52.694;6.214;2023-12-28T08:41:32;10.10;99.90
57390;DHT22;43217;52.694;6.214;2023-12-28T08:43:58;10.20;99.90
57390;DHT22;43217;52.694;6.214;2023-12-28T08:46:23;10.20;99.90
57390;DHT22;43217;52.694;6.214;2023-12-28T08:48:52;10.20;99.90
57390;DHT22;43217;52.694;6.214;2023-12-28T08:51:18;10.20;99.90
57390;DHT22;43217;52.694;6.214;2023-12-28T08:53:43;10.20;99.90
57390;DHT22;43217;52.694;6.214;2023-12-28T08:56:22;10.30;99.90
57390;DHT22;43217;52.694;6.214;2023-12-28T08:58:48;10.30;99.90
57390;DHT22;43217;52.694;6.214;2023-12-28T09:01:17;10.30;99.90
57390;DHT22;43217;52.694;6.214;2023-12-28T09:03:44;10.30;99.90
57390;DHT22;43217;52.694;6.214;2023-12-28T09:06:10;10.30;99.90
57390;DHT22;43217;52.694;6.214;2023-12-28T09:08:35;10.30;99.90
57390;DHT22;43217;52.694;6.214;2023-12-28T09:11:01;10.40;99.90
57390;DHT22;43217;52.694;6.214;2023-12-28T09:13:26;10.40;99.90
57390;DHT22;43217;52.694;6.214;2023-12-28T09:15:52;10.40;99.90
57390;DHT22;43217;52.694;6.214;2023-12-28T09:18:18;10.50;99.90
57390;DHT22;43217;52.694;6.214;2023-12-28T09:20:44;10.50;99.90
57390;DHT22;43217;52.694;6.214;2023-12-28T09:23:09;10.50;99.90
57390;DHT22;43217;52.694;6.214;2023-12-28T09:25:36;10.50;99.90
57390;DHT22;43217;52.694;6.214;2023-12-28T09:28:04;10.50;99.90
57390;DHT22;43217;52.694;6.214;2023-12-28T09:30:30;10.50;99.90
57390;DHT22;43217;52.694;6.214;2023-12-28T09:32:56;10.50;99.90
57390;DHT22;43217;52.694;6.214;2023-12-28T09:35:21;10.50;99.90
57390;DHT22;43217;52.694;6.214;2023-12-28T09:37:47;10.50;99.90
57390;DHT22;43217;52.694;6.214;2023-12-28T09:40:13;10.50;99.90
57390;DHT22;43217;52.694;6.214;2023-12-28T09:43:03;10.60;99.90
57390;DHT22;43217;52.694;6.214;2023-12-28T09:45:32;10.60;99.90
57390;DHT22;43217;52.694;6.214;2023-12-28T09:47:58;10.60;99.90
57390;DHT22;43217;52.694;6.214;2023-12-28T09:50:24;10.60;99.90
57390;DHT22;43217;52.694;6.214;2023-12-28T09:52:52;10.60;99.90
57390;DHT22;43217;52.694;6.214;2023-12-28T09:55:18;10.60;99.90
57390;DHT22;43217;52.694;6.214;2023-12-28T09:57:45;10.60;99.90
57390;DHT22;43217;52.694;6.214;2023-12-28T10:00:12;10.60;99.90
57390;DHT22;43217;52.694;6.214;2023-12-28T10:02:40;10.60;99.90
57390;DHT22;43217;52.694;6.214;2023-12-28T10:05:06;10.60;99.90
57390;DHT22;43217;52.694;6.214;2023-12-28T10:07:32;10.70;99.90
57390;DHT22;43217;52.694;6.214;2023-12-28T10:09:58;10.70;99.90
57390;DHT22;43217;52.694;6.214;2023-12-28T10:12:24;10.70;99.90
57390;DHT22;43217;52.694;6.214;2023-12-28T10:14:51;10.70;99.90
57390;DHT22;43217;52.694;6.214;2023-12-28T10:17:17;10.80;99.90
57390;DHT22;43217;52.694;6.214;2023-12-28T10:19:43;10.80;99.90
57390;DHT22;43217;52.694;6.214;2023-12-28T10:22:13;10.80;99.90
57390;DHT22;43217;52.694;6.214;2023-12-28T10:24:45;10.80;99.90
57390;DHT22;43217;52.694;6.214;2023-12-28T10:27:13;10.70;99.90
57390;DHT22;43217;52.694;6.214;2023-12-28T10:29:39;10.80;99.90
57390;DHT22;43217;52.694;6.214;2023-12-28T10:32:05;10.70;99.90
57390;DHT22;43217;52.694;6.214;2023-12-28T10:34:31;10.70;99.90
57390;DHT22;43217;52.694;6.214;2023-12-28T10:36:59;10.70;99.90
57390;DHT22;43217;52.694;6.214;2023-12-28T10:39:25;10.70;99.90
57390;DHT22;43217;52.694;6.214;2023-12-28T10:41:55;10.80;99.90
57390;DHT22;43217;52.694;6.214;2023-12-28T10:44:23;10.70;99.90
57390;DHT22;43217;52.694;6.214;2023-12-28T10:46:55;10.70;99.90
57390;DHT22;43217;52.694;6.214;2023-12-28T10:49:25;10.70;99.90
57390;DHT22;43217;52.694;6.214;2023-12-28T10:51:52;10.70;99.90
57390;DHT22;43217;52.694;6.214;2023-12-28T10:57:33;10.70;99.90
57390;DHT22;43217;52.694;6.214;2023-12-28T11:00:11;10.70;99.90
57390;DHT22;43217;52.694;6.214;2023-12-28T11:02:44;10.70;99.90
57390;DHT22;43217;52.694;6.214;2023-12-28T11:05:12;10.70;99.90
57390;DHT22;43217;52.694;6.214;2023-12-28T11:07:40;10.80;99.90
57390;DHT22;43217;52.694;6.214;2023-12-28T11:10:07;10.80;99.90
57390;DHT22;43217;52.694;6.214;2023-12-28T11:12:33;10.80;99.90
57390;DHT22;43217;52.694;6.214;2023-12-28T11:14:59;10.80;99.90
57390;DHT22;43217;52.694;6.214;2023-12-28T11:17:27;10.80;99.90
57390;DHT22;43217;52.694;6.214;2023-12-28T11:19:54;10.90;99.90
57390;DHT22;43217;52.694;6.214;2023-12-28T11:22:22;10.90;99.90
57390;DHT22;43217;52.694;6.214;2023-12-28T11:24:48;10.90;99.90
57390;DHT22;43217;52.694;6.214;2023-12-28T11:27:14;10.90;99.90
57390;DHT22;43217;52.694;6.214;2023-12-28T11:29:43;10.90;99.90
57390;DHT22;43217;52.694;6.214;2023-12-28T11:32:10;10.90;99.90
57390;DHT22;43217;52.694;6.214;2023-12-28T11:34:36;10.90;99.90
57390;DHT22;43217;52.694;6.214;2023-12-28T11:37:12;10.90;99.90
57390;DHT22;43217;52.694;6.214;2023-12-28T11:39:39;10.90;99.90
57390;DHT22;43217;52.694;6.214;2023-12-28T11:42:09;10.80;99.90
57390;DHT22;43217;52.694;6.214;2023-12-28T11:44:39;10.80;99.90
57390;DHT22;43217;52.694;6.214;2023-12-28T11:49:39;10.80;99.90
57390;DHT22;43217;52.694;6.214;2023-12-28T11:52:08;10.90;99.90
57390;DHT22;43217;52.694;6.214;2023-12-28T11:54:34;10.80;99.90
57390;DHT22;43217;52.694;6.214;2023-12-28T11:57:00;10.80;99.90
57390;DHT22;43217;52.694;6.214;2023-12-28T11:59:25;10.90;99.90
57390;DHT22;43217;52.694;6.214;2023-12-28T12:01:52;10.80;99.90
57390;DHT22;43217;52.694;6.214;2023-12-28T12:04:21;10.80;99.90
57390;DHT22;43217;52.694;6.214;2023-12-28T12:06:47;10.90;99.90
57390;DHT22;43217;52.694;6.214;2023-12-28T12:09:14;10.90;99.90
57390;DHT22;43217;52.694;6.214;2023-12-28T12:11:40;10.90;99.90
57390;DHT22;43217;52.694;6.214;2023-12-28T12:14:12;10.90;99.90
57390;DHT22;43217;52.694;6.214;2023-12-28T12:16:38;10.90;99.90
57390;DHT22;43217;52.694;6.214;2023-12-28T12:19:07;10.90;99.90
57390;DHT22;43217;52.694;6.214;2023-12-28T12:21:34;10.90;99.90
57390;DHT22;43217;52.694;6.214;2023-12-28T12:23:59;11.00;99.90
57390;DHT22;43217;52.694;6.214;2023-12-28T12:26:26;11.00;99.90
57390;DHT22;43217;52.694;6.214;2023-12-28T12:28:52;11.00;99.90
57390;DHT22;43217;52.694;6.214;2023-12-28T12:31:18;11.00;99.90
57390;DHT22;43217;52.694;6.214;2023-12-28T12:33:44;11.00;99.90
57390;DHT22;43217;52.694;6.214;2023-12-28T12:36:10;11.00;99.90
57390;DHT22;43217;52.694;6.214;2023-12-28T12:38:36;11.00;99.90
57390;DHT22;43217;52.694;6.214;2023-12-28T12:41:02;11.00;99.90
57390;DHT22;43217;52.694;6.214;2023-12-28T12:43:28;11.00;99.90
57390;DHT22;43217;52.694;6.214;2023-12-28T12:45:54;11.00;99.90
57390;DHT22;43217;52.694;6.214;2023-12-28T12:48:20;10.90;99.90
57390;DHT22;43217;52.694;6.214;2023-12-28T12:50:45;11.00;99.90
57390;DHT22;43217;52.694;6.214;2023-12-28T12:53:11;11.00;99.90
57390;DHT22;43217;52.694;6.214;2023-12-28T12:55:37;11.00;99.90
57390;DHT22;43217;52.694;6.214;2023-12-28T12:58:12;10.90;99.90
57390;DHT22;43217;52.694;6.214;2023-12-28T13:00:39;10.90;99.90
57390;DHT22;43217;52.694;6.214;2023-12-28T13:03:08;10.90;99.90
57390;DHT22;43217;52.694;6.214;2023-12-28T13:05:37;10.90;99.90
57390;DHT22;43217;52.694;6.214;2023-12-28T13:08:04;10.90;99.90
57390;DHT22;43217;52.694;6.214;2023-12-28T13:10:30;10.90;99.90
57390;DHT22;43217;52.694;6.214;2023-12-28T13:12:56;10.90;99.90
57390;DHT22;43217;52.694;6.214;2023-12-28T13:15:22;10.90;99.90
57390;DHT22;43217;52.694;6.214;2023-12-28T13:17:47;10.90;99.90
57390;DHT22;43217;52.694;6.214;2023-12-28T13:20:13;10.90;99.90
57390;DHT22;43217;52.694;6.214;2023-12-28T13:22:39;10.90;99.90
57390;DHT22;43217;52.694;6.214;2023-12-28T13:25:05;10.90;99.90
57390;DHT22;43217;52.694;6.214;2023-12-28T13:27:31;10.90;99.90
57390;DHT22;43217;52.694;6.214;2023-12-28T13:29:57;10.90;99.90
57390;DHT22;43217;52.694;6.214;2023-12-28T13:32:23;10.90;99.90
57390;DHT22;43217;52.694;6.214;2023-12-28T13:34:49;10.90;99.90
57390;DHT22;43217;52.694;6.214;2023-12-28T13:37:16;10.90;99.90
57390;DHT22;43217;52.694;6.214;2023-12-28T13:39:42;10.90;99.90
57390;DHT22;43217;52.694;6.214;2023-12-28T13:42:07;10.90;99.90
57390;DHT22;43217;52.694;6.214;2023-12-28T13:44:34;10.90;99.90
57390;DHT22;43217;52.694;6.214;2023-12-28T13:47:01;10.90;99.90
57390;DHT22;43217;52.694;6.214;2023-12-28T13:49:27;10.90;99.90
57390;DHT22;43217;52.694;6.214;2023-12-28T13:51:52;10.90;99.90
57390;DHT22;43217;52.694;6.214;2023-12-28T13:54:18;10.90;99.90
57390;DHT22;43217;52.694;6.214;2023-12-28T13:56:47;10.80;99.90
57390;DHT22;43217;52.694;6.214;2023-12-28T13:59:13;10.80;99.90
57390;DHT22;43217;52.694;6.214;2023-12-28T14:01:39;10.80;99.90
57390;DHT22;43217;52.694;6.214;2023-12-28T14:04:05;10.80;99.90
57390;DHT22;43217;52.694;6.214;2023-12-28T14:06:31;10.80;99.90
57390;DHT22;43217;52.694;6.214;2023-12-28T14:08:56;10.80;99.90
57390;DHT22;43217;52.694;6.214;2023-12-28T14:11:23;10.80;99.90
57390;DHT22;43217;52.694;6.214;2023-12-28T14:13:49;10.80;99.90
57390;DHT22;43217;52.694;6.214;2023-12-28T14:16:14;10.80;99.90
57390;DHT22;43217;52.694;6.214;2023-12-28T14:18:40;10.80;99.90
57390;DHT22;43217;52.694;6.214;2023-12-28T14:21:10;10.80;99.90
57390;DHT22;43217;52.694;6.214;2023-12-28T14:23:39;10.80;99.90
57390;DHT22;43217;52.694;6.214;2023-12-28T14:26:15;10.80;99.90
57390;DHT22;43217;52.694;6.214;2023-12-28T14:28:44;10.80;99.90
57390;DHT22;43217;52.694;6.214;2023-12-28T14:31:10;10.80;99.90
57390;DHT22;43217;52.694;6.214;2023-12-28T14:33:37;10.80;99.90
57390;DHT22;43217;52.694;6.214;2023-12-28T14:36:06;10.80;99.90
57390;DHT22;43217;52.694;6.214;2023-12-28T14:38:35;10.80;99.90
57390;DHT22;43217;52.694;6.214;2023-12-28T14:41:01;10.80;99.90
57390;DHT22;43217;52.694;6.214;2023-12-28T14:43:27;10.80;99.90
57390;DHT22;43217;52.694;6.214;2023-12-28T14:45:52;10.70;99.90
57390;DHT22;43217;52.694;6.214;2023-12-28T14:48:18;10.70;99.90
57390;DHT22;43217;52.694;6.214;2023-12-28T14:50:44;10.70;99.90
57390;DHT22;43217;52.694;6.214;2023-12-28T14:53:09;10.70;99.90
57390;DHT22;43217;52.694;6.214;2023-12-28T14:55:35;10.70;99.90
57390;DHT22;43217;52.694;6.214;2023-12-28T14:58:01;10.70;99.90
57390;DHT22;43217;52.694;6.214;2023-12-28T15:00:27;10.70;99.90
57390;DHT22;43217;52.694;6.214;2023-12-28T15:02:53;10.60;99.90
57390;DHT22;43217;52.694;6.214;2023-12-28T15:05:18;10.60;99.90
57390;DHT22;43217;52.694;6.214;2023-12-28T15:07:44;10.60;99.90
57390;DHT22;43217;52.694;6.214;2023-12-28T15:10:10;10.60;99.90
57390;DHT22;43217;52.694;6.214;2023-12-28T15:12:36;10.60;99.90
57390;DHT22;43217;52.694;6.214;2023-12-28T15:15:02;10.60;99.90
57390;DHT22;43217;52.694;6.214;2023-12-28T15:17:28;10.60;99.90
57390;DHT22;43217;52.694;6.214;2023-12-28T15:19:54;10.50;99.90
57390;DHT22;43217;52.694;6.214;2023-12-28T15:22:20;10.50;99.90
57390;DHT22;43217;52.694;6.214;2023-12-28T15:24:47;10.50;99.90
57390;DHT22;43217;52.694;6.214;2023-12-28T15:27:12;10.40;99.90
57390;DHT22;43217;52.694;6.214;2023-12-28T15:29:38;10.40;99.90
57390;DHT22;43217;52.694;6.214;2023-12-28T15:32:04;10.40;99.90
57390;DHT22;43217;52.694;6.214;2023-12-28T15:34:29;10.40;99.90
57390;DHT22;43217;52.694;6.214;2023-12-28T15:36:55;10.30;99.90